Time;durP1;ratioP1;P1;durP2;ratioP2;P2;SDS_P1;SDS_P2;PMS_P1;PMS_P2;Temp;Humidity;BMP_temperature;BMP_pressure;BME280_temperature;BME280_humidity;BME280_pressure;Samples;Min_cycle;Max_cycle;Signal;HPM_P1;HPM_P2
2023/05/09 00:01:23;;;;;;;26.90;12.90;;;;;;;-128.00;-1.00;-1.00;97903;285;1003226;-30
2023/05/09 00:03:50;;;;;;;31.10;13.40;;;;;;;-128.00;-1.00;-1.00;97930;296;1005027;-33
2023/05/09 00:06:16;;;;;;;30.00;15.00;;;;;;;-128.00;-1.00;-1.00;97828;285;1003673;-29
2023/05/09 00:08:41;;;;;;;30.50;14.30;;;;;;;-128.00;-1.00;-1.00;98043;285;1003403;-34
2023/05/09 00:11:07;;;;;;;28.20;12.50;;;;;;;-128.00;-1.00;-1.00;97843;285;1003105;-33
2023/05/09 00:13:33;;;;;;;32.80;16.60;;;;;;;-128.00;-1.00;-1.00;62473;296;6844597;-33
2023/05/09 00:15:59;;;;;;;28.50;14.70;;;;;;;-128.00;-1.00;-1.00;19220;296;7504933;-29
2023/05/09 00:18:27;;;;;;;33.20;13.80;;;;;;;-128.00;-1.00;-1.00;18531;297;7506419;-29
2023/05/09 00:20:52;;;;;;;32.60;16.50;;;;;;;-128.00;-1.00;-1.00;18498;320;7504756;-34
2023/05/09 00:23:18;;;;;;;27.90;13.70;;;;;;;-128.00;-1.00;-1.00;18868;316;7504272;-29
2023/05/09 00:25:44;;;;;;;29.10;15.10;;;;;;;-128.00;-1.00;-1.00;18863;289;7504724;-29
2023/05/09 00:28:11;;;;;;;26.20;13.10;;;;;;;-128.00;-1.00;-1.00;18906;296;7504863;-30
2023/05/09 00:30:37;;;;;;;29.60;11.10;;;;;;;-128.00;-1.00;-1.00;18855;289;7504447;-29
2023/05/09 00:33:03;;;;;;;34.70;19.80;;;;;;;-128.00;-1.00;-1.00;18473;289;7504100;-31
2023/05/09 00:35:31;;;;;;;38.10;20.40;;;;;;;-128.00;-1.00;-1.00;18853;297;7504462;-29
2023/05/09 00:37:56;;;;;;;48.60;14.80;;;;;;;-128.00;-1.00;-1.00;18445;349;7504450;-29
2023/05/09 00:40:22;;;;;;;28.40;12.60;;;;;;;-128.00;-1.00;-1.00;18871;289;7504457;-29
2023/05/09 00:42:49;;;;;;;29.00;12.40;;;;;;;-128.00;-1.00;-1.00;18855;285;7505067;-32
2023/05/09 00:45:15;;;;;;;17.10;11.70;;;;;;;-128.00;-1.00;-1.00;18452;297;7505528;-33
2023/05/09 00:47:40;;;;;;;28.00;11.60;;;;;;;-128.00;-1.00;-1.00;18484;289;7506624;-30
2023/05/09 00:50:08;;;;;;;21.20;11.50;;;;;;;-128.00;-1.00;-1.00;18875;295;7504398;-34
2023/05/09 00:52:33;;;;;;;25.70;10.60;;;;;;;-128.00;-1.00;-1.00;18441;296;7507206;-30
2023/05/09 00:54:59;;;;;;;18.40;9.30;;;;;;;-128.00;-1.00;-1.00;18490;288;7504607;-34
2023/05/09 00:57:25;;;;;;;18.60;10.00;;;;;;;-128.00;-1.00;-1.00;18491;296;7504552;-30
2023/05/09 00:59:50;;;;;;;21.10;10.90;;;;;;;-128.00;-1.00;-1.00;18462;284;7504492;-33
2023/05/09 01:02:16;;;;;;;26.40;12.30;;;;;;;-128.00;-1.00;-1.00;18473;288;7505134;-30
2023/05/09 01:04:44;;;;;;;30.80;12.10;;;;;;;-128.00;-1.00;-1.00;18491;296;7506138;-30
2023/05/09 01:07:24;;;;;;;18.10;10.20;;;;;;;-128.00;-1.00;-1.00;18456;288;7504760;-29
2023/05/09 01:10:00;;;;;;;34.40;12.00;;;;;;;-128.00;-1.00;-1.00;18467;296;7504632;-33
2023/05/09 01:12:49;;;;;;;38.30;12.30;;;;;;;-128.00;-1.00;-1.00;18469;321;7505020;-34
2023/05/09 01:15:20;;;;;;;23.10;11.60;;;;;;;-128.00;-1.00;-1.00;18465;288;7504685;-30
2023/05/09 01:17:59;;;;;;;32.30;11.80;;;;;;;-128.00;-1.00;-1.00;18504;320;7505343;-33
2023/05/09 01:20:35;;;;;;;17.90;10.50;;;;;;;-128.00;-1.00;-1.00;18452;288;7504680;-33
2023/05/09 01:23:19;;;;;;;25.90;13.90;;;;;;;-128.00;-1.00;-1.00;18435;348;7504451;-29
2023/05/09 01:26:02;;;;;;;24.40;16.20;;;;;;;-128.00;-1.00;-1.00;18467;295;7506088;-28
2023/05/09 01:28:51;;;;;;;25.90;14.70;;;;;;;-128.00;-1.00;-1.00;18464;296;7504623;-29
2023/05/09 01:31:17;;;;;;;29.00;15.00;;;;;;;-128.00;-1.00;-1.00;18453;288;7504593;-32
2023/05/09 01:33:42;;;;;;;29.20;15.10;;;;;;;-128.00;-1.00;-1.00;18463;297;7506418;-29
2023/05/09 01:36:11;;;;;;;31.20;16.10;;;;;;;-128.00;-1.00;-1.00;18460;295;7504750;-33
2023/05/09 01:38:37;;;;;;;27.90;15.20;;;;;;;-128.00;-1.00;-1.00;18473;295;7505572;-29
2023/05/09 01:41:04;;;;;;;32.60;16.90;;;;;;;-128.00;-1.00;-1.00;18455;348;7506589;-30
2023/05/09 01:43:30;;;;;;;30.50;13.80;;;;;;;-128.00;-1.00;-1.00;18458;295;7506068;-28
2023/05/09 01:45:56;;;;;;;34.00;17.70;;;;;;;-128.00;-1.00;-1.00;18896;288;7505766;-33
2023/05/09 01:48:25;;;;;;;37.10;18.80;;;;;;;-128.00;-1.00;-1.00;18886;308;7504870;-30
2023/05/09 01:50:51;;;;;;;28.50;14.40;;;;;;;-128.00;-1.00;-1.00;18462;288;7504279;-30
2023/05/09 01:53:17;;;;;;;33.00;15.00;;;;;;;-128.00;-1.00;-1.00;18445;288;7505829;-33
2023/05/09 01:55:43;;;;;;;36.80;15.90;;;;;;;-128.00;-1.00;-1.00;18441;295;7504160;-29
2023/05/09 01:58:09;;;;;;;33.60;16.30;;;;;;;-128.00;-1.00;-1.00;18463;295;7505019;-33
2023/05/09 02:00:35;;;;;;;38.20;15.90;;;;;;;-128.00;-1.00;-1.00;18475;308;7505157;-29
2023/05/09 02:03:03;;;;;;;24.20;14.60;;;;;;;-128.00;-1.00;-1.00;18503;288;7504336;-34
2023/05/09 02:05:28;;;;;;;29.50;14.80;;;;;;;-128.00;-1.00;-1.00;18462;295;7504931;-29
2023/05/09 02:07:57;;;;;;;32.40;14.50;;;;;;;-128.00;-1.00;-1.00;18482;296;7504550;-30
2023/05/09 02:10:24;;;;;;;29.30;14.90;;;;;;;-128.00;-1.00;-1.00;18478;297;7506043;-29
2023/05/09 02:12:51;;;;;;;21.90;12.10;;;;;;;-128.00;-1.00;-1.00;18457;311;7506300;-30
2023/05/09 02:15:17;;;;;;;33.20;15.60;;;;;;;-128.00;-1.00;-1.00;18464;348;7506131;-35
2023/05/09 02:17:42;;;;;;;29.90;16.70;;;;;;;-128.00;-1.00;-1.00;18489;288;7504560;-31
2023/05/09 02:20:10;;;;;;;29.00;16.20;;;;;;;-128.00;-1.00;-1.00;18878;288;7504553;-33
2023/05/09 02:22:36;;;;;;;28.80;13.80;;;;;;;-128.00;-1.00;-1.00;18475;296;7505112;-29
2023/05/09 02:25:03;;;;;;;35.30;16.00;;;;;;;-128.00;-1.00;-1.00;18465;296;7506314;-33
2023/05/09 02:27:31;;;;;;;36.70;14.90;;;;;;;-128.00;-1.00;-1.00;18471;320;7506267;-33
2023/05/09 02:30:00;;;;;;;24.60;14.80;;;;;;;-128.00;-1.00;-1.00;18455;288;7504766;-30
2023/05/09 02:32:27;;;;;;;26.30;14.70;;;;;;;-128.00;-1.00;-1.00;18456;296;7505132;-33
2023/05/09 02:34:53;;;;;;;25.90;15.00;;;;;;;-128.00;-1.00;-1.00;18465;336;7505919;-34
2023/05/09 02:37:19;;;;;;;25.50;15.00;;;;;;;-128.00;-1.00;-1.00;18458;295;7504343;-30
2023/05/09 02:39:45;;;;;;;29.80;15.40;;;;;;;-128.00;-1.00;-1.00;18470;288;7504648;-34
2023/05/09 02:42:12;;;;;;;26.80;15.70;;;;;;;-128.00;-1.00;-1.00;18463;288;7504884;-34
2023/05/09 02:44:38;;;;;;;27.20;14.30;;;;;;;-128.00;-1.00;-1.00;18479;288;7504380;-30
2023/05/09 02:47:04;;;;;;;28.10;16.10;;;;;;;-128.00;-1.00;-1.00;18484;303;7504253;-34
2023/05/09 02:49:30;;;;;;;26.00;14.70;;;;;;;-128.00;-1.00;-1.00;18487;295;7506174;-30
2023/05/09 02:51:56;;;;;;;28.10;15.00;;;;;;;-128.00;-1.00;-1.00;18440;288;7504543;-34
2023/05/09 02:54:22;;;;;;;32.50;15.20;;;;;;;-128.00;-1.00;-1.00;18460;288;7504519;-30
2023/05/09 02:56:48;;;;;;;27.00;16.20;;;;;;;-128.00;-1.00;-1.00;18861;295;7505568;-34
2023/05/09 02:59:15;;;;;;;25.40;13.10;;;;;;;-128.00;-1.00;-1.00;18445;295;7506023;-29
2023/05/09 03:01:41;;;;;;;30.90;15.00;;;;;;;-128.00;-1.00;-1.00;18448;297;7504330;-30
2023/05/09 03:04:07;;;;;;;37.30;19.10;;;;;;;-128.00;-1.00;-1.00;18490;295;7505437;-29
2023/05/09 03:06:35;;;;;;;29.20;16.10;;;;;;;-128.00;-1.00;-1.00;18854;288;7504742;-34
2023/05/09 03:09:00;;;;;;;34.70;15.30;;;;;;;-128.00;-1.00;-1.00;18469;298;7506651;-30
2023/05/09 03:11:26;;;;;;;23.40;11.60;;;;;;;-128.00;-1.00;-1.00;18471;347;7504769;-30
2023/05/09 03:13:52;;;;;;;24.80;12.60;;;;;;;-128.00;-1.00;-1.00;18436;296;7504648;-34
2023/05/09 03:16:18;;;;;;;28.90;14.00;;;;;;;-128.00;-1.00;-1.00;18873;288;7504795;-30
2023/05/09 03:18:44;;;;;;;25.60;14.10;;;;;;;-128.00;-1.00;-1.00;18486;296;7504356;-29
2023/05/09 03:21:10;;;;;;;31.80;14.70;;;;;;;-128.00;-1.00;-1.00;18848;296;7505176;-30
2023/05/09 03:23:36;;;;;;;34.30;15.10;;;;;;;-128.00;-1.00;-1.00;18899;288;7504680;-30
2023/05/09 03:26:02;;;;;;;29.30;15.00;;;;;;;-128.00;-1.00;-1.00;18883;297;7505494;-34
2023/05/09 03:28:28;;;;;;;36.40;14.80;;;;;;;-128.00;-1.00;-1.00;18896;295;7504327;-32
2023/05/09 03:30:55;;;;;;;23.00;13.60;;;;;;;-128.00;-1.00;-1.00;18896;296;7505095;-33
2023/05/09 03:33:21;;;;;;;22.00;13.60;;;;;;;-128.00;-1.00;-1.00;18853;288;7504583;-30
2023/05/09 03:35:47;;;;;;;26.60;12.30;;;;;;;-128.00;-1.00;-1.00;18892;288;7505221;-30
2023/05/09 03:38:13;;;;;;;32.00;14.90;;;;;;;-128.00;-1.00;-1.00;18844;296;7504388;-30
2023/05/09 03:40:40;;;;;;;23.00;14.20;;;;;;;-128.00;-1.00;-1.00;18899;288;7505242;-30
2023/05/09 03:43:06;;;;;;;34.70;12.80;;;;;;;-128.00;-1.00;-1.00;18869;288;7505494;-30
2023/05/09 03:45:34;;;;;;;24.80;13.60;;;;;;;-128.00;-1.00;-1.00;18884;296;7504894;-34
2023/05/09 03:48:00;;;;;;;23.00;11.90;;;;;;;-128.00;-1.00;-1.00;18470;288;7504492;-34
2023/05/09 03:50:25;;;;;;;22.30;12.70;;;;;;;-128.00;-1.00;-1.00;18460;297;7506211;-31
2023/05/09 03:52:51;;;;;;;21.40;12.90;;;;;;;-128.00;-1.00;-1.00;18434;296;7504913;-29
2023/05/09 03:55:17;;;;;;;31.40;13.00;;;;;;;-128.00;-1.00;-1.00;18464;296;7504766;-29
2023/05/09 03:57:43;;;;;;;29.40;9.60;;;;;;;-128.00;-1.00;-1.00;18482;348;7507079;-33
2023/05/09 04:00:09;;;;;;;18.30;11.40;;;;;;;-128.00;-1.00;-1.00;18473;303;7504710;-35
2023/05/09 04:02:34;;;;;;;21.50;11.20;;;;;;;-128.00;-1.00;-1.00;18485;288;7504542;-29
2023/05/09 04:05:01;;;;;;;22.40;11.70;;;;;;;-128.00;-1.00;-1.00;18461;296;7508596;-32
2023/05/09 04:07:27;;;;;;;11.60;8.00;;;;;;;-128.00;-1.00;-1.00;18460;308;7506058;-33
2023/05/09 04:09:54;;;;;;;17.70;8.70;;;;;;;-128.00;-1.00;-1.00;18495;296;7504917;-29
2023/05/09 04:12:20;;;;;;;14.20;7.20;;;;;;;-128.00;-1.00;-1.00;18459;296;7504324;-29
2023/05/09 04:14:46;;;;;;;12.40;6.90;;;;;;;-128.00;-1.00;-1.00;18473;288;7504252;-33
2023/05/09 04:17:12;;;;;;;16.40;8.20;;;;;;;-128.00;-1.00;-1.00;18499;312;7504810;-32
2023/05/09 04:19:37;;;;;;;15.50;7.30;;;;;;;-128.00;-1.00;-1.00;18478;320;7506547;-31
2023/05/09 04:22:03;;;;;;;15.10;7.50;;;;;;;-128.00;-1.00;-1.00;18478;288;7504578;-33
2023/05/09 04:24:29;;;;;;;16.90;8.20;;;;;;;-128.00;-1.00;-1.00;18890;296;7505648;-34
2023/05/09 04:26:56;;;;;;;16.60;8.50;;;;;;;-128.00;-1.00;-1.00;18873;296;7505120;-30
2023/05/09 04:29:22;;;;;;;21.60;10.90;;;;;;;-128.00;-1.00;-1.00;18875;288;7504228;-34
2023/05/09 04:31:48;;;;;;;18.20;7.20;;;;;;;-128.00;-1.00;-1.00;18864;296;7504118;-34
2023/05/09 04:34:15;;;;;;;17.40;8.40;;;;;;;-128.00;-1.00;-1.00;18870;296;7504329;-31
2023/05/09 04:36:41;;;;;;;18.00;8.30;;;;;;;-128.00;-1.00;-1.00;18877;288;7505614;-34
2023/05/09 04:39:08;;;;;;;13.00;7.20;;;;;;;-128.00;-1.00;-1.00;18883;296;7504519;-31
2023/05/09 05:19:44;;;;;;;10.30;5.20;;;;;;;-101.06;16.98;20081.53;98216;294;1544285;-29
2023/05/09 05:22:11;;;;;;;8.80;5.00;;;;;;;-128.00;-1.00;-1.00;97480;295;1004830;-34
2023/05/09 05:24:37;;;;;;;6.70;5.30;;;;;;;-128.00;-1.00;-1.00;98057;293;1005131;-37
2023/05/09 05:27:03;;;;;;;6.00;4.10;;;;;;;-128.00;-1.00;-1.00;93478;293;3003257;-35
2023/05/09 05:29:28;;;;;;;12.50;5.50;;;;;;;-128.00;-1.00;-1.00;41329;293;7504464;-31
2023/05/09 05:31:55;;;;;;;8.00;5.60;;;;;;;-128.00;-1.00;-1.00;27314;293;7503899;-30
2023/05/09 05:34:22;;;;;;;11.30;5.40;;;;;;;-128.00;-1.00;-1.00;18905;293;7505613;-30
2023/05/09 05:36:48;;;;;;;9.30;5.40;;;;;;;-128.00;-1.00;-1.00;18918;293;7504199;-30
2023/05/09 05:39:14;;;;;;;9.40;5.40;;;;;;;-128.00;-1.00;-1.00;18905;293;7504396;-31
2023/05/09 05:41:40;;;;;;;5.50;4.30;;;;;;;-128.00;-1.00;-1.00;18883;293;7504477;-31
2023/05/09 05:44:06;;;;;;;17.60;4.10;;;;;;;-128.00;-1.00;-1.00;18511;293;7504454;-30
2023/05/09 05:46:32;;;;;;;7.10;5.40;;;;;;;-128.00;-1.00;-1.00;18910;293;7505030;-31
2023/05/09 05:48:59;;;;;;;8.10;5.30;;;;;;;-128.00;-1.00;-1.00;18894;346;7506012;-30
2023/05/09 05:51:25;;;;;;;7.30;4.00;;;;;;;-128.00;-1.00;-1.00;18505;293;7504287;-31
2023/05/09 05:53:51;;;;;;;10.00;4.60;;;;;;;-128.00;-1.00;-1.00;18901;293;7504624;-35
2023/05/09 05:56:17;;;;;;;6.20;4.70;;;;;;;-128.00;-1.00;-1.00;18887;293;7505235;-35
2023/05/09 05:58:43;;;;;;;9.50;5.50;;;;;;;-128.00;-1.00;-1.00;18873;293;7504763;-32
2023/05/09 06:01:10;;;;;;;7.10;4.30;;;;;;;-128.00;-1.00;-1.00;18863;293;7504723;-32
2023/05/09 06:03:36;;;;;;;5.30;4.10;;;;;;;-128.00;-1.00;-1.00;18910;293;7504934;-31
2023/05/09 06:06:03;;;;;;;7.40;4.00;;;;;;;-128.00;-1.00;-1.00;18855;288;7504344;-31
2023/05/09 06:08:29;;;;;;;5.30;4.70;;;;;;;-128.00;-1.00;-1.00;18501;293;7506014;-35
2023/05/09 06:10:54;;;;;;;10.10;3.80;;;;;;;-128.00;-1.00;-1.00;18488;285;7506128;-30
2023/05/09 06:13:20;;;;;;;7.20;3.30;;;;;;;-128.00;-1.00;-1.00;18467;293;7505568;-34
2023/05/09 06:15:46;;;;;;;7.80;4.60;;;;;;;-128.00;-1.00;-1.00;18892;293;7504748;-36
2023/05/09 06:18:12;;;;;;;8.60;7.20;;;;;;;-128.00;-1.00;-1.00;18879;309;7504537;-31
2023/05/09 06:20:39;;;;;;;8.20;4.00;;;;;;;-128.00;-1.00;-1.00;18888;294;7507232;-32
2023/05/09 06:23:05;;;;;;;6.30;4.50;;;;;;;-128.00;-1.00;-1.00;18476;295;7506499;-35
2023/05/09 06:25:31;;;;;;;8.30;3.80;;;;;;;-128.00;-1.00;-1.00;18893;295;7504273;-35
2023/05/09 06:27:57;;;;;;;8.00;4.10;;;;;;;-128.00;-1.00;-1.00;18887;334;7504478;-31
2023/05/09 06:30:23;;;;;;;5.20;3.60;;;;;;;-128.00;-1.00;-1.00;18884;346;7506216;-34
2023/05/09 06:32:49;;;;;;;3.60;3.20;;;;;;;-128.00;-1.00;-1.00;18889;294;7504354;-30
2023/05/09 06:35:16;;;;;;;6.20;3.90;;;;;;;-128.00;-1.00;-1.00;18903;298;7504815;-34
2023/05/09 06:37:42;;;;;;;6.30;4.20;;;;;;;-128.00;-1.00;-1.00;18899;343;7504710;-31
2023/05/09 06:40:09;;;;;;;4.80;3.20;;;;;;;-128.00;-1.00;-1.00;18896;295;7505334;-36
2023/05/09 06:42:35;;;;;;;9.20;2.00;;;;;;;-128.00;-1.00;-1.00;18502;296;7504870;-30
2023/05/09 06:45:00;;;;;;;4.60;3.60;;;;;;;-128.00;-1.00;-1.00;18497;295;7504526;-30
2023/05/09 06:47:26;;;;;;;7.70;3.90;;;;;;;-128.00;-1.00;-1.00;18909;294;7504987;-30
2023/05/09 06:49:53;;;;;;;9.00;4.20;;;;;;;-128.00;-1.00;-1.00;18899;334;7504598;-34
2023/05/09 06:52:20;;;;;;;9.20;4.70;;;;;;;-128.00;-1.00;-1.00;18871;338;7505136;-31
2023/05/09 06:54:46;;;;;;;4.80;3.80;;;;;;;-128.00;-1.00;-1.00;18453;329;7505543;-30
2023/05/09 06:57:12;;;;;;;7.90;3.40;;;;;;;-128.00;-1.00;-1.00;18528;309;7506102;-35
2023/05/09 06:59:37;;;;;;;8.00;3.50;;;;;;;-128.00;-1.00;-1.00;18501;346;7504916;-31
2023/05/09 07:02:03;;;;;;;11.10;4.20;;;;;;;-128.00;-1.00;-1.00;18482;294;7506215;-35
2023/05/09 07:04:29;;;;;;;10.40;3.40;;;;;;;-128.00;-1.00;-1.00;18476;296;7504409;-35
2023/05/09 07:06:55;;;;;;;3.90;3.10;;;;;;;-128.00;-1.00;-1.00;18485;294;7504328;-35
2023/05/09 07:09:26;;;;;;;8.30;3.20;;;;;;;-128.00;-1.00;-1.00;18905;287;7504069;-31
2023/05/09 07:11:52;;;;;;;4.80;2.80;;;;;;;-128.00;-1.00;-1.00;18496;294;7505991;-31
2023/05/09 07:14:19;;;;;;;10.10;3.30;;;;;;;-128.00;-1.00;-1.00;18481;296;7504615;-35
2023/05/09 07:16:45;;;;;;;6.30;3.40;;;;;;;-128.00;-1.00;-1.00;18491;294;7506696;-35
2023/05/09 07:19:11;;;;;;;5.00;3.60;;;;;;;-128.00;-1.00;-1.00;18444;295;7504689;-35
2023/05/09 07:21:37;;;;;;;3.40;2.80;;;;;;;-128.00;-1.00;-1.00;18477;309;7504960;-34
2023/05/09 07:24:03;;;;;;;9.30;2.90;;;;;;;-128.00;-1.00;-1.00;18882;294;7504565;-31
2023/05/09 07:26:29;;;;;;;4.10;3.10;;;;;;;-128.00;-1.00;-1.00;18493;294;7505996;-35
2023/05/09 07:28:54;;;;;;;3.10;2.60;;;;;;;-128.00;-1.00;-1.00;18504;296;7506205;-31
2023/05/09 07:31:20;;;;;;;3.90;3.00;;;;;;;-128.00;-1.00;-1.00;18462;288;7507025;-32
2023/05/09 07:33:46;;;;;;;3.90;2.90;;;;;;;-128.00;-1.00;-1.00;18472;294;7504645;-35
2023/05/09 07:36:15;;;;;;;2.80;2.30;;;;;;;-128.00;-1.00;-1.00;18878;294;7504793;-32
2023/05/09 07:38:40;;;;;;;3.20;2.30;;;;;;;-128.00;-1.00;-1.00;18477;294;7504498;-35
2023/05/09 07:41:06;;;;;;;2.80;2.10;;;;;;;-128.00;-1.00;-1.00;18484;317;7504341;-35
2023/05/09 07:43:32;;;;;;;5.30;3.40;;;;;;;-128.00;-1.00;-1.00;18488;294;7504728;-34
2023/05/09 07:45:58;;;;;;;12.00;3.00;;;;;;;-128.00;-1.00;-1.00;18874;295;7504692;-32
2023/05/09 07:48:25;;;;;;;4.10;3.10;;;;;;;-128.00;-1.00;-1.00;18867;294;7504237;-34
2023/05/09 07:50:50;;;;;;;7.50;2.30;;;;;;;-128.00;-1.00;-1.00;18475;338;7506744;-30
2023/05/09 07:53:16;;;;;;;4.70;3.80;;;;;;;-128.00;-1.00;-1.00;18908;294;7505309;-31
2023/05/09 07:55:44;;;;;;;4.80;2.40;;;;;;;-128.00;-1.00;-1.00;18896;317;7504774;-31
2023/05/09 07:58:09;;;;;;;4.50;3.00;;;;;;;-128.00;-1.00;-1.00;18497;294;7505288;-31
2023/05/09 08:00:35;;;;;;;4.10;2.30;;;;;;;-128.00;-1.00;-1.00;18462;294;7504114;-35
2023/05/09 08:03:01;;;;;;;4.20;2.60;;;;;;;-128.00;-1.00;-1.00;18890;293;7504927;-30
2023/05/09 08:05:27;;;;;;;7.00;2.50;;;;;;;-128.00;-1.00;-1.00;18905;294;7504547;-31
2023/05/09 08:07:53;;;;;;;5.80;2.60;;;;;;;-128.00;-1.00;-1.00;18896;295;7504896;-35
2023/05/09 08:10:21;;;;;;;5.20;2.40;;;;;;;-128.00;-1.00;-1.00;18893;294;7504875;-34
2023/05/09 08:12:47;;;;;;;3.60;1.60;;;;;;;-128.00;-1.00;-1.00;18476;306;7504607;-31
2023/05/09 08:15:13;;;;;;;3.90;2.80;;;;;;;-128.00;-1.00;-1.00;18493;293;7505218;-31
2023/05/09 08:17:39;;;;;;;2.30;2.00;;;;;;;-128.00;-1.00;-1.00;18465;317;7504309;-30
2023/05/09 08:20:06;;;;;;;6.10;3.20;;;;;;;-128.00;-1.00;-1.00;18477;346;7505913;-30
2023/05/09 08:22:32;;;;;;;2.90;2.00;;;;;;;-128.00;-1.00;-1.00;18492;317;7505192;-31
2023/05/09 08:24:58;;;;;;;13.20;2.50;;;;;;;-128.00;-1.00;-1.00;18492;346;7504446;-34
2023/05/09 08:27:25;;;;;;;4.60;2.60;;;;;;;-128.00;-1.00;-1.00;18490;294;7504580;-31
2023/05/09 08:29:50;;;;;;;3.00;2.10;;;;;;;-128.00;-1.00;-1.00;18490;294;7506339;-31
2023/05/09 08:32:18;;;;;;;5.10;2.30;;;;;;;-128.00;-1.00;-1.00;18511;294;7506135;-34
2023/05/09 08:34:44;;;;;;;4.30;2.40;;;;;;;-128.00;-1.00;-1.00;18479;296;7504397;-32
2023/05/09 08:37:10;;;;;;;3.50;2.60;;;;;;;-128.00;-1.00;-1.00;18489;294;7506087;-34
2023/05/09 08:39:36;;;;;;;6.90;2.30;;;;;;;-128.00;-1.00;-1.00;18497;305;7504413;-31
2023/05/09 08:42:01;;;;;;;3.90;2.20;;;;;;;-128.00;-1.00;-1.00;18494;294;7506016;-35
2023/05/09 08:44:28;;;;;;;2.90;2.20;;;;;;;-128.00;-1.00;-1.00;18513;294;7504179;-36
2023/05/09 08:46:57;;;;;;;4.50;2.30;;;;;;;-128.00;-1.00;-1.00;18488;293;7505187;-35
2023/05/09 08:49:24;;;;;;;4.00;2.40;;;;;;;-128.00;-1.00;-1.00;18479;286;7504402;-35
2023/05/09 08:51:49;;;;;;;2.30;1.70;;;;;;;-128.00;-1.00;-1.00;18491;298;7505086;-35
2023/05/09 08:54:15;;;;;;;1.50;1.40;;;;;;;-128.00;-1.00;-1.00;18526;346;7504637;-32
2023/05/09 08:56:41;;;;;;;3.70;2.50;;;;;;;-128.00;-1.00;-1.00;18501;294;7504443;-31
2023/05/09 08:59:06;;;;;;;3.00;2.20;;;;;;;-128.00;-1.00;-1.00;18509;294;7505795;-31
2023/05/09 09:01:34;;;;;;;4.20;1.60;;;;;;;-128.00;-1.00;-1.00;18890;294;7505212;-32
2023/05/09 09:04:00;;;;;;;6.00;3.80;;;;;;;-128.00;-1.00;-1.00;18473;294;7504367;-35
2023/05/09 09:06:27;;;;;;;1.70;1.40;;;;;;;-128.00;-1.00;-1.00;18516;338;7504626;-35
2023/05/09 09:08:54;;;;;;;3.70;1.70;;;;;;;-128.00;-1.00;-1.00;18520;294;7505836;-31
2023/05/09 09:11:21;;;;;;;2.60;1.60;;;;;;;-128.00;-1.00;-1.00;18496;296;7504235;-31
2023/05/09 09:13:47;;;;;;;2.00;1.30;;;;;;;-128.00;-1.00;-1.00;18498;346;7504953;-31
2023/05/09 09:16:19;;;;;;;2.80;2.10;;;;;;;-128.00;-1.00;-1.00;18480;294;7504629;-31
2023/05/09 09:18:45;;;;;;;2.70;1.90;;;;;;;-128.00;-1.00;-1.00;18489;346;7504728;-32
2023/05/09 09:21:11;;;;;;;2.10;1.50;;;;;;;-128.00;-1.00;-1.00;18521;338;7504990;-35
2023/05/09 09:23:39;;;;;;;3.80;1.60;;;;;;;-128.00;-1.00;-1.00;18451;296;7504766;-35
2023/05/09 09:26:04;;;;;;;5.00;3.10;;;;;;;-128.00;-1.00;-1.00;18480;294;7506070;-35
2023/05/09 09:28:30;;;;;;;7.00;1.80;;;;;;;-128.00;-1.00;-1.00;18454;305;7504507;-31
2023/05/09 09:30:56;;;;;;;3.00;2.10;;;;;;;-128.00;-1.00;-1.00;18494;310;7505356;-35
2023/05/09 09:33:23;;;;;;;9.50;1.80;;;;;;;-128.00;-1.00;-1.00;18497;294;7504451;-31
2023/05/09 09:35:49;;;;;;;12.70;2.20;;;;;;;-128.00;-1.00;-1.00;18510;294;7504752;-34
2023/05/09 09:38:17;;;;;;;2.40;1.80;;;;;;;-128.00;-1.00;-1.00;18515;313;7506129;-31
2023/05/09 09:40:57;;;;;;;7.20;1.90;;;;;;;-128.00;-1.00;-1.00;18520;293;7506069;-30
2023/05/09 09:43:30;;;;;;;7.60;3.20;;;;;;;-128.00;-1.00;-1.00;18493;294;7504653;-35
2023/05/09 09:45:56;;;;;;;5.40;4.90;;;;;;;-128.00;-1.00;-1.00;18491;294;7504652;-31
2023/05/09 09:48:25;;;;;;;7.30;3.30;;;;;;;-128.00;-1.00;-1.00;18450;305;7505846;-30
2023/05/09 09:50:53;;;;;;;2.20;1.90;;;;;;;-128.00;-1.00;-1.00;18485;306;7505155;-35
2023/05/09 09:53:19;;;;;;;5.10;3.40;;;;;;;-128.00;-1.00;-1.00;18513;293;7504572;-31
2023/05/09 09:55:49;;;;;;;9.00;2.30;;;;;;;-128.00;-1.00;-1.00;18481;309;7504631;-35
2023/05/09 09:58:16;;;;;;;14.20;11.50;;;;;;;-128.00;-1.00;-1.00;18526;302;7504674;-31
2023/05/09 10:00:42;;;;;;;11.90;5.50;;;;;;;-128.00;-1.00;-1.00;18483;317;7505122;-30
2023/05/09 10:03:12;;;;;;;10.20;1.10;;;;;;;-128.00;-1.00;-1.00;18451;295;7504370;-31
2023/05/09 10:05:41;;;;;;;14.20;1.30;;;;;;;-128.00;-1.00;-1.00;18501;310;7504769;-36
2023/05/09 10:08:08;;;;;;;2.20;2.00;;;;;;;-128.00;-1.00;-1.00;18489;294;7506210;-31
2023/05/09 10:10:34;;;;;;;7.70;1.50;;;;;;;-128.00;-1.00;-1.00;18466;293;7506378;-31
2023/05/09 10:13:06;;;;;;;21.10;1.90;;;;;;;-128.00;-1.00;-1.00;18483;294;7504166;-35
2023/05/09 10:15:32;;;;;;;4.40;2.20;;;;;;;-128.00;-1.00;-1.00;18467;302;7504802;-35
2023/05/09 10:17:59;;;;;;;4.50;2.60;;;;;;;-128.00;-1.00;-1.00;18471;285;7504601;-31
2023/05/09 10:20:26;;;;;;;4.70;2.40;;;;;;;-128.00;-1.00;-1.00;18492;293;7505229;-35
2023/05/09 10:22:55;;;;;;;3.60;2.20;;;;;;;-128.00;-1.00;-1.00;18484;294;7505035;-35
2023/05/09 10:25:21;;;;;;;2.30;1.90;;;;;;;-128.00;-1.00;-1.00;18483;293;7504837;-31
2023/05/09 10:27:48;;;;;;;3.50;1.60;;;;;;;-128.00;-1.00;-1.00;18507;334;7506036;-30
2023/05/09 10:30:17;;;;;;;2.70;1.40;;;;;;;-128.00;-1.00;-1.00;18492;294;7504895;-31
2023/05/09 10:32:57;;;;;;;2.20;1.00;;;;;;;-128.00;-1.00;-1.00;18503;294;7506683;-31
2023/05/09 10:35:28;;;;;;;3.90;2.20;;;;;;;-128.00;-1.00;-1.00;18491;294;7504542;-30
2023/05/09 10:37:55;;;;;;;;;;;;;;;-128.00;-1.00;-1.00;18497;295;7505493;-35
2023/05/09 10:40:24;;;;;;;10.40;1.10;;;;;;;-128.00;-1.00;-1.00;18474;299;7504829;-30
2023/05/09 10:42:50;;;;;;;1.60;1.20;;;;;;;-128.00;-1.00;-1.00;18493;338;7506170;-31
2023/05/09 10:45:16;;;;;;;2.80;1.30;;;;;;;-128.00;-1.00;-1.00;18487;294;7504707;-30
2023/05/09 10:47:45;;;;;;;3.10;1.30;;;;;;;-128.00;-1.00;-1.00;18525;294;7504358;-35
2023/05/09 10:50:11;;;;;;;1.40;1.00;;;;;;;-128.00;-1.00;-1.00;18476;283;7504801;-35
2023/05/09 10:53:03;;;;;;;17.30;2.20;;;;;;;-128.00;-1.00;-1.00;18498;346;7504365;-35
2023/05/09 10:55:48;;;;;;;1.00;0.80;;;;;;;-128.00;-1.00;-1.00;18491;293;7504116;-35
2023/05/09 10:58:27;;;;;;;2.10;1.70;;;;;;;-128.00;-1.00;-1.00;18468;334;7504586;-32
2023/05/09 11:00:54;;;;;;;1.50;1.40;;;;;;;-128.00;-1.00;-1.00;18490;294;7504812;-35
2023/05/09 11:03:20;;;;;;;8.60;1.60;;;;;;;-128.00;-1.00;-1.00;18506;302;7506701;-31
2023/05/09 11:05:48;;;;;;;2.20;1.50;;;;;;;-128.00;-1.00;-1.00;18479;294;7504369;-35
2023/05/09 11:49:02;;;;;;;1.50;1.00;;;;;;;-99.00;5.94;20011.36;98307;295;1545185;-34
2023/05/09 11:51:36;;;;;;;2.70;1.50;;;;;;;-128.00;-1.00;-1.00;97375;297;1003510;-31
2023/05/09 11:54:02;;;;;;;1.50;1.10;;;;;;;-128.00;-1.00;-1.00;97854;285;1003269;-31
2023/05/09 11:56:29;;;;;;;3.10;1.40;;;;;;;-128.00;-1.00;-1.00;97871;295;1003138;-31
2023/05/09 11:58:54;;;;;;;2.50;1.10;;;;;;;-128.00;-1.00;-1.00;97940;296;1003270;-31
2023/05/09 12:01:20;;;;;;;6.70;1.90;;;;;;;-128.00;-1.00;-1.00;97822;297;1004348;-31
2023/05/09 12:03:46;;;;;;;3.00;1.60;;;;;;;-128.00;-1.00;-1.00;97909;295;1003972;-35
2023/05/09 12:06:16;;;;;;;1.70;1.00;;;;;;;-128.00;-1.00;-1.00;97901;295;1003450;-30
2023/05/09 12:08:43;;;;;;;1.70;1.10;;;;;;;-128.00;-1.00;-1.00;97918;295;1004035;-31
2023/05/09 12:11:09;;;;;;;2.70;1.10;;;;;;;-128.00;-1.00;-1.00;97869;295;1003069;-35
2023/05/09 12:13:34;;;;;;;20.50;14.80;;;;;;;-128.00;-1.00;-1.00;97918;295;1003739;-33
2023/05/09 12:16:01;;;;;;;5.00;2.00;;;;;;;-128.00;-1.00;-1.00;97961;285;1002745;-36
2023/05/09 12:18:26;;;;;;;2.10;1.10;;;;;;;-128.00;-1.00;-1.00;97854;295;1002811;-31
2023/05/09 12:20:52;;;;;;;1.30;0.90;;;;;;;-128.00;-1.00;-1.00;97864;285;1003496;-35
2023/05/09 12:23:18;;;;;;;1.60;0.90;;;;;;;-128.00;-1.00;-1.00;97873;295;1003363;-30
2023/05/09 12:25:55;;;;;;;2.50;1.90;;;;;;;-128.00;-1.00;-1.00;97923;288;1004041;-34
2023/05/09 12:28:24;;;;;;;8.10;1.70;;;;;;;-128.00;-1.00;-1.00;98021;295;1003732;-30
2023/05/09 12:30:50;;;;;;;11.30;2.00;;;;;;;-128.00;-1.00;-1.00;97885;295;1002982;-30
2023/05/09 12:33:16;;;;;;;1.30;1.00;;;;;;;-128.00;-1.00;-1.00;97979;288;1003746;-30
2023/05/09 12:35:46;;;;;;;2.00;1.30;;;;;;;-128.00;-1.00;-1.00;97837;295;1002906;-37
2023/05/09 12:38:14;;;;;;;6.60;1.30;;;;;;;-128.00;-1.00;-1.00;97786;295;1003636;-31
2023/05/09 12:40:43;;;;;;;1.90;1.60;;;;;;;-128.00;-1.00;-1.00;97932;295;1003107;-30
2023/05/09 12:43:08;;;;;;;6.30;2.50;;;;;;;-128.00;-1.00;-1.00;97955;284;1003345;-36
2023/05/09 12:45:34;;;;;;;2.70;1.30;;;;;;;-128.00;-1.00;-1.00;97841;295;1003200;-31